CheckWX is a tool to help pilots better visualize weather data.  It is not intended as a substitute for an official pre-flight weather briefing.

09:07:30 UTC

KTBR METAR
Statesboro-Bulloch County Airport
Statesboro, Georgia, USA
Current

33 mins ago

KTBR 220835Z AUTO 00000KT 7SM SCT095 18/18 A3010 RMK AO2 T01770175
Observed
Feb-22 @ 08:35 UTC
Visibility
7 SM
Flight Rules
VFR
Cloud Levels
  • Scattered at 9,500' AGL
Temperature
18°C / 64°F
Dewpoint
18°C / 64°F
Humidity
100%
Altimeter
30.1" Hg
Pressure
1019.32 hPa
Previous

53 mins ago

KTBR 220815Z AUTO 00000KT 7SM BKN095 18/18 A3010 RMK AO2 T01800178
Observed
Feb-22 @ 08:15 UTC
Visibility
7 SM
Flight Rules
VFR
Cloud Levels
  • Broken at 9,500' AGL
Temperature
18°C / 64°F
Dewpoint
18°C / 64°F
Humidity
100%
Altimeter
30.1" Hg
Pressure
1019.32 hPa
Previous

1 hour ago

KTBR 220755Z AUTO 00000KT 7SM OVC095 18/18 A3011 RMK AO2 T01810180
Observed
Feb-22 @ 07:55 UTC
Visibility
7 SM
Flight Rules
VFR
Cloud Levels
  • Overcast at 9,500' AGL
Temperature
18°C / 64°F
Dewpoint
18°C / 64°F
Humidity
100%
Altimeter
30.11" Hg
Pressure
1019.62 hPa